Time;durP1;ratioP1;P1;durP2;ratioP2;P2;SDS_P1;SDS_P2;PMS_P1;PMS_P2;Temp;Humidity;BMP_temperature;BMP_pressure;BME280_temperature;BME280_humidity;BME280_pressure;Samples;Min_cycle;Max_cycle;Signal;HPM_P1;HPM_P2
2022/09/27 00:01:43;;;;;;;3.53;1.00;;;;;;;12.62;70.72;97901.41;4928924;29;20422;-75
2022/09/27 00:04:10;;;;;;;1.02;0.90;;;;;;;12.63;70.93;97895.16;4931158;29;20182;-76
2022/09/27 00:06:35;;;;;;;1.60;1.13;;;;;;;12.63;71.14;97899.59;4927786;29;20201;-74
2022/09/27 00:09:01;;;;;;;1.73;1.10;;;;;;;12.64;71.35;97890.72;4929253;29;20228;-76
2022/09/27 00:11:38;;;;;;;1.00;0.90;;;;;;;12.60;71.34;97887.56;4927403;29;20510;-75
2022/09/27 00:14:05;;;;;;;1.23;1.05;;;;;;;12.58;71.78;97881.63;4929418;28;20610;-76
2022/09/27 00:16:34;;;;;;;4.60;1.50;;;;;;;12.59;71.67;97882.47;4929716;28;20690;-76
2022/09/27 00:19:01;;;;;;;1.35;1.25;;;;;;;12.57;71.97;97879.13;4930052;29;20651;-73
2022/09/27 00:21:29;;;;;;;1.95;1.45;;;;;;;12.56;72.32;97894.13;4925580;29;20232;-75
2022/09/27 00:23:55;;;;;;;2.00;0.90;;;;;;;12.54;72.29;97882.91;4928710;29;20245;-75
2022/09/27 00:26:21;;;;;;;1.80;0.90;;;;;;;12.54;72.72;97889.97;4930724;29;20194;-76
2022/09/27 00:28:47;;;;;;;1.00;0.90;;;;;;;12.51;72.98;97883.22;4929142;28;20591;-74
2022/09/27 00:31:23;;;;;;;1.23;1.00;;;;;;;12.50;73.32;97873.66;4928273;29;20663;-74
2022/09/27 00:33:50;;;;;;;1.65;1.02;;;;;;;12.50;73.48;97884.19;4929813;29;20227;-76
2022/09/27 00:36:18;;;;;;;2.78;1.00;;;;;;;12.50;73.60;97889.47;4927312;29;20217;-75
2022/09/27 00:38:44;;;;;;;1.08;0.90;;;;;;;12.52;73.54;97892.75;4923313;29;20269;-73
2022/09/27 00:41:15;;;;;;;2.80;1.23;;;;;;;12.51;73.67;97901.66;4920406;29;20232;-75
2022/09/27 00:43:48;;;;;;;1.98;1.40;;;;;;;12.52;73.57;97891.94;4925178;28;20241;-75
2022/09/27 00:46:21;;;;;;;1.33;0.90;;;;;;;12.54;73.78;97897.88;4924504;29;20724;-76
2022/09/27 00:48:47;;;;;;;1.08;0.98;;;;;;;12.55;73.80;97907.44;4925220;28;20241;-75
2022/09/27 00:51:13;;;;;;;0.93;0.93;;;;;;;12.52;73.99;97910.38;4939006;28;20643;-76
2022/09/27 00:53:52;;;;;;;1.40;1.10;;;;;;;12.52;74.25;97916.47;4921000;28;20197;-74
2022/09/27 00:56:21;;;;;;;1.98;0.90;;;;;;;12.54;74.19;97924.22;4923879;29;20515;-74
2022/09/27 00:58:56;;;;;;;2.25;1.00;;;;;;;12.51;74.54;97930.63;4923897;29;20186;-75
2022/09/27 01:01:21;;;;;;;1.65;1.55;;;;;;;12.53;74.39;97930.44;4925646;29;20405;-74
2022/09/27 01:03:55;;;;;;;1.40;1.00;;;;;;;12.53;74.55;97926.03;4923252;29;20198;-74
2022/09/27 01:06:21;;;;;;;1.48;1.20;;;;;;;12.54;74.62;97935.56;4927178;28;20182;-75
2022/09/27 01:08:47;;;;;;;1.45;1.20;;;;;;;12.54;74.68;97938.22;4925116;29;20244;-75
2022/09/27 01:11:20;;;;;;;2.60;1.08;;;;;;;12.54;74.79;97943.47;4924130;28;20737;-75
2022/09/27 01:13:59;;;;;;;1.55;1.35;;;;;;;12.55;74.85;97949.56;4925153;29;20214;-75
2022/09/27 01:16:48;;;;;;;1.45;0.90;;;;;;;12.54;74.95;97948.75;4926510;29;20209;-75
2022/09/27 01:19:38;;;;;;;1.35;1.23;;;;;;;12.56;75.04;97956.50;4922998;29;20234;-74
2022/09/27 01:22:20;;;;;;;1.20;1.10;;;;;;;12.56;75.16;97953.88;4938627;28;20227;-75
2022/09/27 01:24:51;;;;;;;1.60;1.10;;;;;;;12.57;75.06;97958.16;4937671;28;20248;-76
2022/09/27 01:27:48;;;;;;;1.20;1.00;;;;;;;12.59;75.08;97957.03;4926760;29;20217;-75
2022/09/27 01:30:27;;;;;;;1.02;0.93;;;;;;;12.59;75.06;97966.75;4926252;29;20815;-76
2022/09/27 01:33:05;;;;;;;2.13;1.13;;;;;;;12.59;75.22;97970.19;4923006;29;20746;-74
2022/09/27 01:35:36;;;;;;;2.03;1.00;;;;;;;12.58;75.36;97973.81;4924402;29;20233;-73
2022/09/27 01:38:40;;;;;;;1.38;1.00;;;;;;;12.59;75.37;97977.28;4940783;28;20190;-75
2022/09/27 01:41:26;;;;;;;2.55;1.15;;;;;;;12.59;75.60;97982.53;4941389;28;20312;-74
2022/09/27 01:44:38;;;;;;;1.05;0.90;;;;;;;12.59;75.63;97985.19;4930443;28;20650;-76
2022/09/27 01:47:17;;;;;;;1.60;1.40;;;;;;;12.60;75.59;97985.00;4923097;29;20285;-75
2022/09/27 01:50:03;;;;;;;1.20;1.10;;;;;;;12.63;75.39;97984.69;4923172;28;20216;-75
2022/09/27 01:52:43;;;;;;;1.65;1.40;;;;;;;12.66;75.53;97978.31;4938373;28;20753;-75
2022/09/27 01:55:12;;;;;;;2.03;1.20;;;;;;;12.67;75.43;97976.53;4940224;28;20192;-75
2022/09/27 01:57:45;;;;;;;3.08;2.00;;;;;;;12.68;75.44;97979.00;4926314;29;20206;-75
2022/09/27 02:00:16;;;;;;;3.60;1.50;;;;;;;12.72;75.49;97984.78;4923551;29;20213;-76
2022/09/27 02:02:51;;;;;;;1.93;1.00;;;;;;;12.75;75.42;97990.59;4926604;29;20206;-73
2022/09/27 02:05:28;;;;;;;1.40;1.30;;;;;;;12.76;75.32;97988.78;4922161;29;20461;-74
2022/09/27 02:08:10;;;;;;;2.40;1.30;;;;;;;12.78;75.28;97989.47;4942705;28;20193;-75
2022/09/27 02:10:43;;;;;;;1.92;1.00;;;;;;;12.77;75.33;97985.16;4923734;29;20765;-75
2022/09/27 02:13:21;;;;;;;1.63;0.90;;;;;;;12.76;75.36;97983.50;4921899;29;20663;-75
2022/09/27 02:16:22;;;;;;;2.70;1.00;;;;;;;12.75;75.49;97992.41;4942510;28;20197;-75
2022/09/27 02:19:00;;;;;;;1.48;1.00;;;;;;;12.74;75.54;97986.28;4924405;29;20241;-75
2022/09/27 02:21:53;;;;;;;1.80;0.90;;;;;;;12.75;75.47;97984.50;4939449;28;20320;-75
2022/09/27 02:24:33;;;;;;;3.25;1.40;;;;;;;12.76;75.47;97991.41;4921858;29;20197;-74
2022/09/27 02:27:21;;;;;;;2.50;1.20;;;;;;;12.73;75.45;97991.72;4921609;29;20244;-74
2022/09/27 02:29:59;;;;;;;3.20;2.78;;;;;;;12.70;75.49;97995.47;4938497;28;20579;-75
2022/09/27 02:32:26;;;;;;;1.70;1.50;;;;;;;12.69;75.54;97993.00;4924599;29;20426;-75
2022/09/27 02:34:54;;;;;;;1.85;1.40;;;;;;;12.69;75.49;97995.63;4940995;28;20288;-75
2022/09/27 02:37:20;;;;;;;2.15;1.10;;;;;;;12.68;75.40;98002.69;4923356;29;20197;-75
2022/09/27 02:39:47;;;;;;;1.55;1.00;;;;;;;12.67;75.54;98003.69;4922577;29;20263;-74
2022/09/27 02:42:12;;;;;;;1.63;0.90;;;;;;;12.65;75.50;97992.47;4924728;29;20213;-76
2022/09/27 02:44:41;;;;;;;1.90;1.27;;;;;;;12.66;75.54;97999.38;4940100;28;20445;-75
2022/09/27 02:47:25;;;;;;;3.78;1.40;;;;;;;12.66;75.56;97995.94;4923728;29;20674;-75
2022/09/27 02:50:24;;;;;;;2.35;1.05;;;;;;;12.67;75.55;98005.50;4413054;29;10005395;-75
2022/09/27 02:53:37;;;;;;;2.60;1.02;;;;;;;12.63;75.56;98008.41;4938001;28;20595;-75
2022/09/27 02:56:38;;;;;;;1.55;1.00;;;;;;;12.60;75.44;98006.09;4940079;28;20266;-75
2022/09/27 02:59:53;;;;;;;2.90;1.55;;;;;;;12.54;75.43;98001.41;4924608;28;20213;-75
2022/09/27 03:02:26;;;;;;;2.08;1.10;;;;;;;12.50;75.57;98013.25;4923584;29;20220;-75
2022/09/27 03:05:20;;;;;;;1.00;0.80;;;;;;;12.48;75.48;98015.19;4924438;28;20300;-75
2022/09/27 03:07:46;;;;;;;1.98;1.50;;;;;;;12.45;75.56;98012.84;4920487;29;20190;-75
2022/09/27 03:10:20;;;;;;;1.92;0.88;;;;;;;12.43;75.59;98017.44;4923913;29;20239;-76
2022/09/27 03:12:46;;;;;;;1.25;1.10;;;;;;;12.39;75.58;98014.28;4924969;29;21357;-75
2022/09/27 03:15:12;;;;;;;2.03;1.07;;;;;;;12.37;75.73;98020.66;4920390;29;20224;-75
2022/09/27 03:18:14;;;;;;;1.60;1.17;;;;;;;12.32;75.83;98023.75;4903348;29;20717;-75
2022/09/27 03:20:45;;;;;;;3.42;1.00;;;;;;;12.31;75.92;98029.13;4920061;29;20731;-76
2022/09/27 03:23:15;;;;;;;2.50;2.30;;;;;;;12.27;75.90;98025.16;4926688;28;20205;-76
2022/09/27 03:25:41;;;;;;;1.30;1.00;;;;;;;12.26;75.99;98024.34;4921108;29;20256;-75
2022/09/27 03:28:08;;;;;;;2.90;1.63;;;;;;;12.26;75.99;98031.38;4922119;29;21199;-75
2022/09/27 03:30:34;;;;;;;1.92;1.40;;;;;;;12.23;76.05;98032.50;4916942;29;20212;-75
2022/09/27 03:33:00;;;;;;;1.77;1.30;;;;;;;12.24;76.05;98033.34;4909148;29;20203;-75
2022/09/27 03:35:42;;;;;;;3.83;1.58;;;;;;;12.24;76.17;98031.53;4920411;29;20673;-74
2022/09/27 03:38:08;;;;;;;2.65;1.40;;;;;;;12.25;76.12;98029.72;4918691;29;20190;-74
2022/09/27 03:40:35;;;;;;;4.82;2.00;;;;;;;12.26;76.12;98018.22;4925907;28;20225;-75
2022/09/27 03:43:01;;;;;;;3.67;2.65;;;;;;;12.27;76.21;98025.16;4929763;28;20607;-75
2022/09/27 03:45:26;;;;;;;3.10;1.50;;;;;;;12.29;76.15;98028.47;4910885;29;21123;-75
2022/09/27 03:47:53;;;;;;;3.00;1.80;;;;;;;12.27;76.21;98022.53;4933512;28;20472;-74
2022/09/27 03:50:19;;;;;;;6.38;1.70;;;;;;;12.27;76.23;98023.34;4912750;29;21039;-75
2022/09/27 03:52:45;;;;;;;4.40;2.53;;;;;;;12.26;76.25;98026.97;4915565;28;20174;-75
2022/09/27 03:55:11;;;;;;;4.00;1.73;;;;;;;12.25;76.45;98021.84;4915627;29;20911;-75
2022/09/27 03:57:37;;;;;;;8.82;2.20;;;;;;;12.24;76.48;98031.53;4912937;29;20985;-75
2022/09/27 04:00:04;;;;;;;1.50;1.40;;;;;;;12.24;76.48;98033.34;4726024;28;5093375;-75
2022/09/27 04:02:40;;;;;;;3.65;1.85;;;;;;;12.22;76.47;98032.66;4920192;29;20216;-75
2022/09/27 04:05:21;;;;;;;3.50;1.50;;;;;;;12.20;76.49;98045.97;4913792;29;20202;-75
2022/09/27 04:07:49;;;;;;;3.20;2.00;;;;;;;12.21;76.45;98052.06;4911975;28;20182;-75
2022/09/27 04:10:16;;;;;;;4.80;1.85;;;;;;;12.21;76.52;98052.91;4932619;28;20436;-75
2022/09/27 04:12:43;;;;;;;3.20;1.87;;;;;;;12.21;76.32;98057.34;4897538;28;20683;-75
2022/09/27 04:15:09;;;;;;;3.92;1.52;;;;;;;12.21;76.25;98059.97;4905494;29;20190;-75
2022/09/27 04:17:47;;;;;;;1.98;1.45;;;;;;;12.18;76.30;98059.28;4897760;29;20225;-74
2022/09/27 04:20:34;;;;;;;3.60;1.40;;;;;;;12.15;76.09;98056.09;4909714;29;20222;-75
2022/09/27 04:23:06;;;;;;;2.10;1.60;;;;;;;12.15;75.99;98059.59;4917872;29;20238;-75
2022/09/27 04:25:34;;;;;;;2.67;2.13;;;;;;;12.13;75.90;98056.25;4920225;29;20183;-75
2022/09/27 04:28:06;;;;;;;1.50;1.00;;;;;;;12.12;75.66;98065.13;4906260;29;20424;-75
2022/09/27 04:30:32;;;;;;;2.15;1.80;;;;;;;12.08;75.59;98062.94;4901011;29;20245;-75
2022/09/27 04:33:10;;;;;;;1.80;1.08;;;;;;;12.05;75.50;98055.34;4905664;29;20382;-75
2022/09/27 04:38:46;;;;;;;2.55;0.90;;;;;;;11.98;75.36;98068.22;4906236;29;20190;-75
2022/09/27 04:41:13;;;;;;;1.13;0.90;;;;;;;11.97;75.22;98079.72;4918603;29;20744;-75
2022/09/27 04:43:39;;;;;;;1.92;1.73;;;;;;;11.93;75.28;98081.81;4903773;29;20217;-75
2022/09/27 04:46:05;;;;;;;4.00;1.27;;;;;;;11.94;75.13;98098.44;4900119;29;20191;-75
2022/09/27 04:48:31;;;;;;;1.73;1.60;;;;;;;11.93;75.13;98100.22;4904899;29;20615;-75
2022/09/27 04:50:58;;;;;;;4.13;1.10;;;;;;;11.92;75.26;98095.13;4906315;29;20492;-75
2022/09/27 04:53:24;;;;;;;2.65;1.58;;;;;;;11.93;74.98;98108.13;4904326;29;20187;-75
2022/09/27 04:55:52;;;;;;;1.17;1.00;;;;;;;11.93;74.83;98102.03;4906680;29;20462;-75
2022/09/27 04:58:17;;;;;;;2.13;1.08;;;;;;;11.89;74.85;98103.31;4907032;29;20218;-75
2022/09/27 05:00:43;;;;;;;1.27;0.80;;;;;;;11.87;74.44;98100.81;4906199;29;20191;-75
2022/09/27 05:03:36;;;;;;;0.80;0.80;;;;;;;11.84;74.22;98101.06;4907017;29;20228;-75
2022/09/27 05:06:09;;;;;;;1.80;1.08;;;;;;;11.84;74.19;98108.13;4906512;29;20214;-75
2022/09/27 05:08:35;;;;;;;2.50;0.90;;;;;;;11.83;73.92;98114.38;4909382;29;20687;-75
2022/09/27 05:11:32;;;;;;;1.50;0.80;;;;;;;11.83;73.98;98117.00;4916911;28;20198;-75
2022/09/27 05:14:21;;;;;;;1.88;1.02;;;;;;;11.79;73.94;98121.69;4909407;29;20191;-75
2022/09/27 05:17:02;;;;;;;1.90;1.02;;;;;;;11.80;73.92;98133.03;4906606;29;20185;-75
2022/09/27 05:19:47;;;;;;;2.25;1.50;;;;;;;11.80;73.84;98127.78;4912438;29;20260;-75
2022/09/27 05:22:27;;;;;;;1.88;1.40;;;;;;;11.79;74.00;98147.19;4906711;29;20210;-75
2022/09/27 05:24:52;;;;;;;3.63;1.10;;;;;;;11.74;74.16;98158.13;4909865;29;20246;-75
2022/09/27 05:27:19;;;;;;;1.70;1.27;;;;;;;11.74;74.25;98152.84;4911468;29;20195;-76
2022/09/27 05:29:46;;;;;;;1.15;0.95;;;;;;;11.75;74.41;98149.28;4896437;29;20207;-76
2022/09/27 05:32:20;;;;;;;1.45;1.20;;;;;;;11.74;74.49;98151.03;4919850;29;20892;-76
2022/09/27 05:34:52;;;;;;;5.03;1.52;;;;;;;11.72;74.50;98155.66;4901479;29;20191;-76
2022/09/27 05:37:18;;;;;;;1.30;1.10;;;;;;;11.71;74.91;98176.81;4904686;29;20198;-76
2022/09/27 05:39:43;;;;;;;1.83;1.00;;;;;;;11.69;74.93;98174.34;4903011;29;20241;-76
2022/09/27 05:42:09;;;;;;;4.20;2.60;;;;;;;11.69;75.17;98169.06;4903691;29;20682;-77
2022/09/27 05:44:36;;;;;;;1.92;1.33;;;;;;;11.69;75.14;98171.72;4904668;29;20202;-77
2022/09/27 05:47:03;;;;;;;1.70;1.30;;;;;;;11.70;75.07;98181.25;4904340;29;20777;-77
2022/09/27 05:49:29;;;;;;;1.83;1.70;;;;;;;11.72;75.13;98189.84;4901061;29;20203;-77
2022/09/27 05:51:54;;;;;;;2.80;1.80;;;;;;;11.72;75.21;98181.13;4907220;29;20195;-77
2022/09/27 05:54:20;;;;;;;3.47;1.40;;;;;;;11.73;75.37;98183.59;4912832;29;20182;-76
2022/09/27 05:56:45;;;;;;;4.57;1.90;;;;;;;11.77;75.32;98185.94;4904991;29;20183;-76
2022/09/27 05:59:24;;;;;;;2.67;2.03;;;;;;;11.77;75.57;98183.31;4902485;29;20210;-77
2022/09/27 06:02:17;;;;;;;3.50;1.60;;;;;;;11.78;75.13;98183.19;4908649;29;20233;-76
2022/09/27 06:05:02;;;;;;;3.63;2.15;;;;;;;11.77;75.23;98185.94;4903631;29;20847;-76
2022/09/27 06:07:48;;;;;;;1.55;1.42;;;;;;;11.76;75.16;98194.81;4907302;29;20229;-76
2022/09/27 06:10:19;;;;;;;1.45;1.20;;;;;;;11.77;75.15;98201.72;4906058;29;20810;-76
2022/09/27 06:12:45;;;;;;;1.00;0.90;;;;;;;11.76;74.88;98205.34;4908768;29;20194;-76
2022/09/27 06:15:32;;;;;;;1.40;0.82;;;;;;;11.71;74.85;98198.69;4568496;29;10001695;-76
2022/09/27 06:18:04;;;;;;;1.52;1.30;;;;;;;11.69;74.51;98202.41;4905805;29;20186;-76
2022/09/27 06:20:30;;;;;;;1.77;1.00;;;;;;;11.68;74.68;98201.59;4901488;29;20688;-76
2022/09/27 06:23:06;;;;;;;2.33;2.13;;;;;;;11.67;74.70;98209.63;4904311;29;20214;-76
2022/09/27 06:25:32;;;;;;;1.02;0.90;;;;;;;11.68;74.61;98206.03;4910414;29;20478;-76
2022/09/27 06:28:21;;;;;;;1.83;1.20;;;;;;;11.66;74.48;98203.53;4906397;29;20643;-76
2022/09/27 06:30:49;;;;;;;4.72;1.23;;;;;;;11.66;74.43;98211.41;4920338;29;20229;-76
2022/09/27 06:33:22;;;;;;;0.80;0.80;;;;;;;11.65;74.25;98222.91;4903033;29;20183;-76
2022/09/27 06:35:50;;;;;;;0.80;0.70;;;;;;;11.66;74.04;98221.94;4904845;29;20179;-76
2022/09/27 06:38:17;;;;;;;1.48;0.95;;;;;;;11.64;73.82;98228.34;4922302;29;20273;-75
2022/09/27 06:40:52;;;;;;;11.02;5.60;;;;;;;11.62;73.73;98230.25;4921721;29;20222;-75
2022/09/27 06:43:26;;;;;;;4.78;2.70;;;;;;;11.60;73.72;98224.31;4905397;29;20209;-75
2022/09/27 06:46:04;;;;;;;4.07;2.60;;;;;;;11.59;73.62;98223.47;4904763;29;20882;-76
2022/09/27 06:48:43;;;;;;;5.32;2.55;;;;;;;11.60;73.57;98226.94;4906096;29;20727;-75
2022/09/27 06:51:14;;;;;;;4.10;3.25;;;;;;;11.61;73.02;98233.84;4901070;29;20628;-75
2022/09/27 06:53:40;;;;;;;2.78;1.88;;;;;;;11.60;73.09;98235.66;4902530;29;20290;-75
2022/09/27 06:56:05;;;;;;;3.67;2.90;;;;;;;11.61;72.90;98239.97;4901912;29;20520;-75
2022/09/27 07:01:43;;;;;;;3.50;2.60;;;;;;;11.68;72.58;98246.31;4898351;29;20202;-75
2022/09/27 07:04:24;;;;;;;3.15;2.60;;;;;;;11.73;72.52;98244.09;4901163;29;20878;-75
2022/09/27 07:07:03;;;;;;;3.08;2.25;;;;;;;11.82;72.42;98245.06;4890966;29;20182;-75
2022/09/27 07:09:39;;;;;;;3.15;2.60;;;;;;;11.92;72.46;98242.47;4898342;29;20205;-75
2022/09/27 07:12:05;;;;;;;3.20;1.98;;;;;;;11.98;72.15;98247.16;4900351;29;20182;-75
2022/09/27 07:14:30;;;;;;;2.20;1.17;;;;;;;12.03;72.06;98250.22;4900542;29;20213;-75
2022/09/27 07:16:56;;;;;;;3.73;1.50;;;;;;;12.08;71.84;98253.25;4907778;29;21039;-75
2022/09/27 07:19:23;;;;;;;2.20;0.88;;;;;;;12.09;72.01;98260.16;4911514;29;20211;-75
2022/09/27 07:21:50;;;;;;;2.72;1.98;;;;;;;12.10;72.13;98261.03;4898966;29;20665;-75
2022/09/27 07:24:15;;;;;;;2.83;1.30;;;;;;;12.10;72.10;98263.66;4898731;29;20777;-74
2022/09/27 07:26:41;;;;;;;1.50;0.90;;;;;;;12.12;72.20;98265.19;4901674;29;20216;-75
2022/09/27 07:29:09;;;;;;;1.65;1.20;;;;;;;12.13;72.17;98266.00;4904656;29;20183;-75
2022/09/27 07:31:36;;;;;;;2.57;1.30;;;;;;;12.14;71.90;98260.56;4910077;29;20189;-76
2022/09/27 07:34:02;;;;;;;1.40;1.25;;;;;;;12.18;71.78;98251.44;4898858;29;20671;-75
2022/09/27 07:36:28;;;;;;;2.90;1.80;;;;;;;12.22;71.75;98259.06;4901986;29;20194;-75
2022/09/27 07:38:58;;;;;;;3.42;1.70;;;;;;;12.25;71.59;98254.31;4912371;29;20530;-75
2022/09/27 07:41:26;;;;;;;2.38;1.50;;;;;;;12.27;71.41;98251.56;4915028;29;20491;-75
2022/09/27 07:43:53;;;;;;;6.00;1.87;;;;;;;12.29;71.38;98254.91;4895115;29;20679;-75
2022/09/27 07:46:19;;;;;;;4.28;1.95;;;;;;;12.31;71.35;98260.81;4874452;29;20475;-75
2022/09/27 07:48:52;;;;;;;1.90;1.55;;;;;;;12.32;71.38;98262.50;4903912;29;20796;-75
2022/09/27 07:51:39;;;;;;;2.78;1.60;;;;;;;12.31;71.28;98260.81;4920678;29;20690;-75
2022/09/27 07:54:11;;;;;;;5.95;1.50;;;;;;;12.34;71.36;98263.19;4905353;29;20186;-75
2022/09/27 07:57:06;;;;;;;2.58;2.15;;;;;;;12.38;71.33;98272.47;4903861;29;20198;-75
2022/09/27 07:59:41;;;;;;;1.80;1.70;;;;;;;12.41;71.33;98280.06;4902177;29;20264;-75
2022/09/27 08:02:16;;;;;;;2.45;2.03;;;;;;;12.42;71.68;98283.53;4907403;29;20214;-76
2022/09/27 08:04:42;;;;;;;2.03;1.83;;;;;;;12.41;71.49;98282.72;4916621;29;20187;-75
2022/09/27 08:07:12;;;;;;;3.83;1.93;;;;;;;12.42;71.56;98276.47;4902404;29;20260;-75
2022/09/27 08:09:38;;;;;;;4.60;3.55;;;;;;;12.45;71.58;98284.09;4902014;29;20470;-75
2022/09/27 08:12:04;;;;;;;8.93;5.20;;;;;;;12.48;71.47;98286.44;4905572;29;20175;-75
2022/09/27 08:14:30;;;;;;;3.50;2.80;;;;;;;12.49;71.43;98290.72;4908532;29;20258;-75
2022/09/27 08:16:56;;;;;;;8.60;4.13;;;;;;;12.51;71.44;98280.91;4905933;29;20378;-75
2022/09/27 08:19:39;;;;;;;3.47;1.73;;;;;;;12.54;71.50;98280.59;4901267;29;20206;-75
2022/09/27 08:22:40;;;;;;;4.35;1.90;;;;;;;12.57;71.29;98290.03;4919312;29;20710;-75
2022/09/27 08:25:23;;;;;;;3.25;2.17;;;;;;;12.59;71.00;98294.19;4903215;29;20242;-75
2022/09/27 08:28:03;;;;;;;1.90;1.50;;;;;;;12.61;70.64;98300.16;4897625;29;20561;-75
2022/09/27 08:30:40;;;;;;;4.25;2.00;;;;;;;12.66;70.75;98298.88;4914761;29;20210;-75
2022/09/27 08:33:06;;;;;;;2.73;1.53;;;;;;;12.71;70.57;98304.53;4899086;29;20194;-75
2022/09/27 08:35:32;;;;;;;3.10;1.93;;;;;;;12.78;70.71;98316.19;4899123;29;20443;-75
2022/09/27 08:37:59;;;;;;;1.95;1.60;;;;;;;12.84;70.41;98312.97;4902445;29;20538;-75
2022/09/27 08:40:45;;;;;;;5.07;2.65;;;;;;;12.89;70.30;98304.63;4915265;29;20225;-75
2022/09/27 08:43:23;;;;;;;3.90;2.05;;;;;;;12.90;70.08;98299.22;4906017;29;20203;-74
2022/09/27 08:46:06;;;;;;;13.18;3.35;;;;;;;12.90;70.43;98301.03;4904599;29;20203;-74
2022/09/27 08:48:35;;;;;;;5.70;1.85;;;;;;;12.90;70.11;98299.22;4917226;29;20193;-76
2022/09/27 08:51:04;;;;;;;3.33;2.35;;;;;;;12.90;69.90;98304.47;4899999;29;20305;-74
2022/09/27 08:53:42;;;;;;;2.70;2.50;;;;;;;12.89;70.06;98299.38;4899060;29;20186;-76
2022/09/27 08:56:09;;;;;;;2.50;1.70;;;;;;;12.87;69.77;98306.59;4905452;29;20198;-76
2022/09/27 08:58:51;;;;;;;2.33;1.50;;;;;;;12.84;69.67;98297.97;4919030;28;20190;-75
2022/09/27 09:01:21;;;;;;;1.80;1.52;;;;;;;12.82;69.82;98296.47;4898313;29;20402;-75
2022/09/27 09:03:58;;;;;;;2.67;2.00;;;;;;;12.82;69.77;98304.38;4906168;29;20199;-76
2022/09/27 09:06:36;;;;;;;2.95;1.55;;;;;;;12.80;69.93;98299.25;4900289;29;20183;-75
2022/09/27 09:09:23;;;;;;;2.90;1.85;;;;;;;12.82;69.87;98305.19;4901481;29;20536;-76
2022/09/27 09:15:21;;;;;;;4.43;1.52;;;;;;;12.83;69.11;98306.06;4902780;29;20218;-74
2022/09/27 09:18:01;;;;;;;2.72;1.60;;;;;;;12.83;69.05;98309.50;4903088;29;20200;-75
2022/09/27 09:21:01;;;;;;;1.80;1.27;;;;;;;12.84;68.93;98307.69;4902577;29;20360;-75
2022/09/27 09:23:33;;;;;;;6.43;2.30;;;;;;;12.84;68.82;98300.63;4915119;29;20211;-75
2022/09/27 09:26:27;;;;;;;4.45;2.40;;;;;;;12.88;68.88;98305.59;4917514;29;20766;-75
2022/09/27 09:29:20;;;;;;;2.28;1.55;;;;;;;12.99;68.98;98311.53;4898240;29;20531;-75
2022/09/27 09:32:01;;;;;;;2.85;1.70;;;;;;;13.23;68.85;98307.53;4894902;29;20223;-73
2022/09/27 09:34:38;;;;;;;3.15;1.58;;;;;;;13.52;68.38;98298.66;4897074;29;20182;-74
2022/09/27 09:37:14;;;;;;;2.70;1.60;;;;;;;13.67;67.97;98294.56;4901237;29;20188;-75
2022/09/27 09:39:42;;;;;;;10.43;2.40;;;;;;;13.74;67.84;98290.31;4915710;29;20299;-75
2022/09/27 09:42:11;;;;;;;2.30;1.80;;;;;;;13.85;68.11;98290.13;4914231;29;20920;-73
2022/09/27 09:45:04;;;;;;;1.65;1.50;;;;;;;14.14;67.58;98291.66;4892859;29;20196;-75
2022/09/27 09:47:36;;;;;;;3.90;1.63;;;;;;;14.44;66.76;98286.94;4917043;29;20203;-73
2022/09/27 09:50:34;;;;;;;7.32;2.30;;;;;;;14.78;65.71;98273.81;4916247;29;20222;-73
2022/09/27 09:53:21;;;;;;;5.47;2.20;;;;;;;15.13;64.82;98272.84;4899577;29;20194;-75
2022/09/27 09:55:57;;;;;;;3.92;2.08;;;;;;;15.28;64.12;98270.38;4897340;29;20189;-74
2022/09/27 09:58:32;;;;;;;4.50;1.63;;;;;;;15.34;63.63;98274.22;4902561;29;20608;-74
2022/09/27 10:01:19;;;;;;;2.55;1.90;;;;;;;15.48;63.21;98260.38;4915531;29;20183;-74
2022/09/27 10:03:48;;;;;;;2.95;1.63;;;;;;;15.62;62.97;98258.91;4894547;29;20201;-73
2022/09/27 10:06:15;;;;;;;2.55;1.45;;;;;;;15.62;62.75;98259.75;4917057;29;20193;-74
2022/09/27 10:08:41;;;;;;;2.80;1.45;;;;;;;15.60;62.72;98258.25;4902130;29;20213;-75
2022/09/27 10:11:40;;;;;;;3.70;1.40;;;;;;;15.57;62.40;98264.69;4900438;28;20241;-74
2022/09/27 10:14:16;;;;;;;5.20;1.80;;;;;;;15.49;62.68;98259.38;4904422;29;20391;-74
2022/09/27 10:16:47;;;;;;;3.45;1.83;;;;;;;15.39;62.82;98263.97;4896181;29;20806;-74
2022/09/27 10:19:17;;;;;;;2.45;1.52;;;;;;;15.30;62.74;98254.38;4895841;29;20201;-74
2022/09/27 10:21:47;;;;;;;2.65;1.58;;;;;;;15.19;63.19;98247.56;4897509;29;20215;-74
2022/09/27 10:24:15;;;;;;;1.85;1.20;;;;;;;15.09;63.29;98239.75;4897732;29;20238;-75
2022/09/27 10:27:00;;;;;;;3.30;2.45;;;;;;;14.94;63.30;98242.19;4897151;29;21764;-74
2022/09/27 10:29:35;;;;;;;3.45;2.03;;;;;;;14.81;62.86;98242.59;4895400;29;20304;-75
2022/09/27 10:32:10;;;;;;;3.42;2.25;;;;;;;14.72;62.86;98235.63;4899495;29;20550;-74
2022/09/27 10:34:41;;;;;;;5.80;2.50;;;;;;;14.76;62.78;98249.34;4892304;29;20462;-74
2022/09/27 10:37:17;;;;;;;4.03;2.60;;;;;;;14.75;62.64;98240.59;4914050;29;20229;-74
2022/09/27 10:40:25;;;;;;;3.65;2.47;;;;;;;14.76;62.47;98238.78;4860630;29;1045135;-74
2022/09/27 10:42:51;;;;;;;4.40;2.25;;;;;;;14.76;62.27;98239.59;4900679;29;20624;-75
2022/09/27 10:45:26;;;;;;;4.18;2.75;;;;;;;14.73;62.20;98229.34;4897250;29;20213;-74
2022/09/27 10:47:58;;;;;;;4.93;2.42;;;;;;;14.75;62.20;98227.38;4896430;29;20201;-75
2022/09/27 10:50:32;;;;;;;3.85;3.00;;;;;;;14.76;62.11;98229.03;4895448;29;20225;-74
2022/09/27 10:53:19;;;;;;;8.45;2.63;;;;;;;14.76;61.96;98222.91;4901178;29;20205;-75
2022/09/27 10:55:52;;;;;;;7.32;3.45;;;;;;;14.69;61.72;98225.38;4914434;29;20213;-74
2022/09/27 10:58:22;;;;;;;6.47;3.27;;;;;;;14.64;61.85;98225.03;4898690;29;20688;-74
2022/09/27 11:00:55;;;;;;;4.88;3.00;;;;;;;14.57;62.38;98216.06;4903048;29;20243;-74
2022/09/27 11:03:21;;;;;;;4.15;2.42;;;;;;;14.49;62.52;98223.91;4911485;29;20220;-74
2022/09/27 11:05:47;;;;;;;3.58;2.95;;;;;;;14.40;62.82;98228.31;4906775;29;20737;-74
2022/09/27 11:08:25;;;;;;;4.63;2.67;;;;;;;14.28;62.72;98225.09;4899807;29;20229;-74
2022/09/27 11:11:15;;;;;;;3.63;2.05;;;;;;;14.15;62.61;98219.41;4896032;29;20246;-74
2022/09/27 11:13:57;;;;;;;2.53;1.63;;;;;;;14.05;62.69;98221.31;4897256;29;20187;-74
2022/09/27 11:16:40;;;;;;;13.07;9.95;;;;;;;13.99;62.92;98224.53;4912036;29;20399;-74
2022/09/27 11:19:12;;;;;;;2.25;1.90;;;;;;;13.98;62.91;98217.63;4909826;29;20178;-74
2022/09/27 11:21:44;;;;;;;4.97;3.78;;;;;;;13.95;63.30;98229.31;4901354;29;20198;-74
2022/09/27 11:24:22;;;;;;;2.20;1.40;;;;;;;13.94;63.83;98227.66;4896464;29;20207;-74
2022/09/27 11:27:05;;;;;;;1.50;1.30;;;;;;;13.93;63.97;98221.56;4914628;29;20183;-74
2022/09/27 11:29:57;;;;;;;7.75;3.67;;;;;;;13.92;64.45;98205.84;4917662;29;20202;-74
2022/09/27 11:33:04;;;;;;;2.35;1.60;;;;;;;13.91;64.67;98193.66;4899724;29;20174;-74
2022/09/27 11:35:55;;;;;;;2.15;1.95;;;;;;;13.91;64.78;98214.78;4907161;29;20186;-74
2022/09/27 11:38:27;;;;;;;5.90;2.40;;;;;;;13.81;65.51;98212.22;4917641;29;20694;-77
2022/09/27 11:41:33;;;;;;;7.20;4.35;;;;;;;13.68;66.51;98214.41;4917749;29;20685;-77
2022/09/27 11:44:48;;;;;;;6.70;6.10;;;;;;;13.51;67.51;98208.16;4898279;29;20245;-77
2022/09/27 11:47:34;;;;;;;3.53;3.00;;;;;;;13.38;68.44;98212.97;4897044;29;20218;-76
2022/09/27 11:50:28;;;;;;;2.97;1.88;;;;;;;13.23;69.05;98208.19;4917123;29;20400;-77
2022/09/27 11:53:16;;;;;;;1.67;1.50;;;;;;;13.15;70.03;98221.28;4903290;29;20891;-76
2022/09/27 11:55:51;;;;;;;5.28;1.80;;;;;;;13.09;70.37;98226.28;4902589;29;20194;-77
2022/09/27 11:58:41;;;;;;;8.43;2.92;;;;;;;13.00;70.86;98244.66;4904809;29;20195;-76
2022/09/27 12:01:25;;;;;;;2.30;1.02;;;;;;;12.82;70.61;98222.69;4901127;29;20875;-76
2022/09/27 12:04:02;;;;;;;1.70;1.10;;;;;;;12.69;70.24;98233.56;4899251;29;20563;-76
2022/09/27 12:06:34;;;;;;;2.22;1.10;;;;;;;12.57;70.20;98229.44;4917362;29;20249;-75
2022/09/27 12:09:05;;;;;;;2.03;1.20;;;;;;;12.54;70.05;98227.09;4900626;29;20210;-76
2022/09/27 12:11:53;;;;;;;4.30;2.78;;;;;;;12.57;70.31;98205.75;4916828;29;20256;-75
2022/09/27 12:14:37;;;;;;;2.42;1.65;;;;;;;12.71;70.32;98196.53;4903591;29;20198;-75
2022/09/27 12:17:19;;;;;;;2.05;1.83;;;;;;;12.91;70.17;98190.19;4902061;29;20660;-76
2022/09/27 12:19:54;;;;;;;2.75;2.17;;;;;;;13.15;70.30;98189.63;4915663;29;20218;-75
2022/09/27 12:22:39;;;;;;;3.25;2.17;;;;;;;13.35;69.97;98190.34;4896185;29;20238;-75